Weather at Eros Airport

Public forecast

Using degrees Celsius for public forecast. Weather courtesy of forecast.io.

Current aviation weather report (METAR) for Eros Airport

Retrieved 2022/07/02 16:00 UTC (2 hours ago):

FYWE 021600Z 32006KT CAVOK 19/M02 Q1025

Aviation forecast (TAF) for Eros Airport

Forecast is more than 12 hours old.

Retrieved 2020/12/05 12:00 UTC (2 years ago):

TAF FYWE 051400Z 0512/0524 30008KT CAVOK